createdAt,value
2022-10-09T00:01:24.365Z,944.25
2022-10-09T00:03:54.864Z,734.88
2022-10-09T00:06:25.231Z,953.08
2022-10-09T00:08:54.969Z,774.70
2022-10-09T00:11:25.256Z,858.90
2022-10-09T00:13:54.788Z,727.58
2022-10-09T00:16:24.329Z,877.90
2022-10-09T00:18:53.019Z,872.80
2022-10-09T00:21:23.988Z,858.65
2022-10-09T00:23:54.903Z,927.92
2022-10-09T00:26:23.885Z,892.05
2022-10-09T00:28:52.548Z,863.25
2022-10-09T00:31:21.525Z,956.88
2022-10-09T00:33:50.291Z,882.83
2022-10-09T00:36:20.713Z,941.10
2022-10-09T00:38:49.322Z,935.10
2022-10-09T00:41:21.475Z,961.75
2022-10-09T00:43:52.334Z,931.00
2022-10-09T00:46:28.811Z,924.17
2022-10-09T00:49:04.518Z,940.70
2022-10-09T00:51:33.802Z,808.40
2022-10-09T00:54:04.306Z,796.78
2022-10-09T00:56:34.966Z,847.22
2022-10-09T00:59:04.424Z,925.95
2022-10-09T01:01:32.959Z,804.03
2022-10-09T01:04:04.378Z,823.08
2022-10-09T01:06:42.685Z,857.45
2022-10-09T01:09:15.337Z,774.75
2022-10-09T01:11:51.462Z,690.78
2022-10-09T01:14:24.099Z,674.22
2022-10-09T01:16:57.762Z,664.97
2022-10-09T01:19:36.835Z,842.80
2022-10-09T01:22:15.418Z,773.63
2022-10-09T01:24:49.114Z,858.05
2022-10-09T01:27:21.958Z,694.85
2022-10-09T01:29:53.783Z,842.40
2022-10-09T01:32:24.750Z,866.47
2022-10-09T01:34:53.773Z,884.83
2022-10-09T01:37:23.274Z,886.03
2022-10-09T01:39:52.322Z,885.88
2022-10-09T01:42:23.436Z,900.25
2022-10-09T01:44:51.967Z,904.17
2022-10-09T01:47:22.397Z,850.25
2022-10-09T01:49:54.908Z,899.15
2022-10-09T01:52:34.937Z,921.97
2022-10-09T01:55:27.361Z,865.72
2022-10-09T01:58:01.476Z,825.38
2022-10-09T02:00:30.993Z,903.17
2022-10-09T02:02:59.899Z,916.80
2022-10-09T02:05:29.903Z,939.42
2022-10-09T02:07:58.776Z,876.30
2022-10-09T02:10:27.338Z,842.60
2022-10-09T02:12:58.852Z,795.15
2022-10-09T02:15:29.536Z,886.40
2022-10-09T02:18:02.823Z,812.92
2022-10-09T02:20:33.975Z,772.05
2022-10-09T02:23:05.598Z,706.65
2022-10-09T02:25:34.665Z,698.78
2022-10-09T02:28:04.777Z,868.70
2022-10-09T02:30:42.879Z,727.15
2022-10-09T02:33:11.346Z,885.90
2022-10-09T02:35:40.241Z,876.20
2022-10-09T02:38:08.665Z,685.85
2022-10-09T02:40:36.946Z,653.15
2022-10-09T02:43:06.685Z,722.60
2022-10-09T02:45:35.045Z,639.28
2022-10-09T02:48:03.316Z,605.35
2022-10-09T02:50:31.728Z,611.58
2022-10-09T02:53:00.138Z,663.58
2022-10-09T02:55:28.655Z,874.15
2022-10-09T02:57:57.110Z,783.85
2022-10-09T03:00:26.858Z,859.50
2022-10-09T03:02:55.337Z,900.58
2022-10-09T03:05:23.645Z,862.67
2022-10-09T03:07:53.132Z,833.47
2022-10-09T03:10:22.097Z,863.75
2022-10-09T03:12:50.682Z,901.30
2022-10-09T03:15:19.122Z,792.00
2022-10-09T03:17:48.876Z,898.75
2022-10-09T03:20:17.462Z,923.30
2022-10-09T03:22:45.835Z,938.13
2022-10-09T03:25:14.182Z,737.47
2022-10-09T03:27:42.553Z,860.40
2022-10-09T03:30:12.057Z,771.30
2022-10-09T03:32:40.497Z,708.63
2022-10-09T03:35:10.880Z,851.15
2022-10-09T03:37:39.299Z,896.22
2022-10-09T03:40:08.589Z,842.28
2022-10-09T03:42:36.943Z,671.38
2022-10-09T03:45:06.169Z,680.00
2022-10-09T03:47:34.523Z,658.45
2022-10-09T03:50:02.914Z,653.97
2022-10-09T03:52:32.622Z,593.05
2022-10-09T03:55:00.907Z,601.13
2022-10-09T03:57:29.358Z,813.67
2022-10-09T03:59:57.816Z,606.67
2022-10-09T04:02:32.450Z,620.85
2022-10-09T04:07:29.114Z,469.20
2022-10-09T04:09:59.029Z,588.58
2022-10-09T04:12:27.479Z,702.60
2022-10-09T04:14:55.897Z,585.00
2022-10-09T04:17:24.316Z,615.40
2022-10-09T04:19:52.672Z,699.15
2022-10-09T04:22:21.157Z,733.28
2022-10-09T04:24:49.513Z,675.90
2022-10-09T04:27:19.355Z,595.38
2022-10-09T04:29:47.852Z,669.45
2022-10-09T04:32:16.245Z,487.23
2022-10-09T04:34:44.584Z,504.85
2022-10-09T04:37:13.001Z,650.65
2022-10-09T04:39:41.376Z,651.30
2022-10-09T04:42:10.147Z,575.38
2022-10-09T04:44:39.914Z,492.95
2022-10-09T04:47:11.316Z,455.88
2022-10-09T04:49:39.887Z,444.55
2022-10-09T04:52:08.359Z,480.70
2022-10-09T04:54:36.727Z,428.83
2022-10-09T04:57:05.281Z,394.55
2022-10-09T04:59:33.659Z,514.42
2022-10-09T05:02:03.701Z,496.95
2022-10-09T05:04:36.852Z,486.10
2022-10-09T05:07:25.243Z,451.60
2022-10-09T05:09:55.920Z,478.73
2022-10-09T05:12:24.366Z,399.58
2022-10-09T05:14:53.364Z,414.77
2022-10-09T05:17:23.836Z,499.10
2022-10-09T05:19:53.176Z,430.67
2022-10-09T05:22:21.696Z,474.08
2022-10-09T05:24:50.297Z,466.33
2022-10-09T05:27:18.746Z,413.45
2022-10-09T05:29:47.655Z,486.52
2022-10-09T05:32:16.227Z,489.10
2022-10-09T05:34:46.047Z,432.08
2022-10-09T05:37:14.402Z,504.65
2022-10-09T05:39:43.053Z,439.98
2022-10-09T05:42:11.561Z,547.45
2022-10-09T05:44:40.148Z,471.65
2022-10-09T05:47:08.654Z,444.83
2022-10-09T05:49:37.266Z,393.60
2022-10-09T05:52:09.014Z,397.92
2022-10-09T05:54:37.548Z,344.35
2022-10-09T05:57:05.941Z,339.13
2022-10-09T05:59:34.365Z,399.58
2022-10-09T06:02:02.777Z,424.02
2022-10-09T06:04:31.572Z,461.88
2022-10-09T06:07:00.155Z,474.50
2022-10-09T06:09:30.111Z,450.10
2022-10-09T06:11:58.573Z,426.10
2022-10-09T06:14:27.044Z,433.00
2022-10-09T06:16:55.683Z,430.67
2022-10-09T06:19:24.261Z,437.52
2022-10-09T06:21:52.915Z,430.27
2022-10-09T06:24:29.045Z,369.55
2022-10-09T06:26:59.627Z,411.08
2022-10-09T06:29:28.214Z,394.50
2022-10-09T06:31:56.685Z,436.67
2022-10-09T06:34:25.180Z,422.42
2022-10-09T06:36:53.799Z,411.25
2022-10-09T06:39:22.527Z,374.65
2022-10-09T06:41:50.949Z,353.20
2022-10-09T06:44:20.861Z,327.00
2022-10-09T06:46:50.998Z,336.20
2022-10-09T06:49:19.570Z,389.75
2022-10-09T06:51:47.972Z,368.23
2022-10-09T06:54:17.447Z,336.70
2022-10-09T06:56:50.141Z,306.27
2022-10-09T06:59:20.195Z,241.98
2022-10-09T07:01:49.007Z,307.52
2022-10-09T07:04:18.852Z,293.13
2022-10-09T07:06:48.775Z,297.50
2022-10-09T07:09:17.568Z,310.73
2022-10-09T07:11:49.390Z,228.68
2022-10-09T07:14:18.105Z,253.00
2022-10-09T07:16:49.732Z,258.00
2022-10-09T07:19:19.146Z,266.27
2022-10-09T07:21:49.678Z,291.52
2022-10-09T07:24:20.286Z,295.35
2022-10-09T07:26:49.239Z,298.13
2022-10-09T07:29:19.464Z,248.68
2022-10-09T07:31:49.882Z,307.88
2022-10-09T07:34:18.391Z,228.23
2022-10-09T07:36:46.878Z,282.35
2022-10-09T07:39:15.358Z,279.38
2022-10-09T07:41:44.176Z,275.98
2022-10-09T07:44:13.180Z,223.50
2022-10-09T07:46:41.720Z,229.68
2022-10-09T07:49:16.267Z,217.63
2022-10-09T07:54:13.695Z,245.48
2022-10-09T07:56:42.210Z,227.20
2022-10-09T07:59:15.485Z,219.60
2022-10-09T08:01:47.058Z,222.52
2022-10-09T08:04:18.821Z,309.00
2022-10-09T08:06:47.650Z,221.98
2022-10-09T08:09:21.003Z,204.50
2022-10-09T08:11:55.008Z,176.48
2022-10-09T08:14:23.918Z,172.10
2022-10-09T08:16:57.061Z,178.25
2022-10-09T08:19:28.775Z,267.42
2022-10-09T08:22:01.323Z,234.77
2022-10-09T08:27:03.449Z,182.18
2022-10-09T08:29:41.573Z,153.98
2022-10-09T08:32:13.375Z,136.02
2022-10-09T08:34:44.289Z,126.97
2022-10-09T08:37:16.918Z,120.03
2022-10-09T08:39:47.551Z,130.85
2022-10-09T08:42:30.067Z,127.28
2022-10-09T08:45:00.937Z,142.02
2022-10-09T08:47:38.053Z,180.23
2022-10-09T08:50:14.504Z,155.85
2022-10-09T08:52:50.299Z,135.52
2022-10-09T08:55:21.803Z,172.52
2022-10-09T08:57:52.642Z,203.82
2022-10-09T09:00:23.182Z,144.65
2022-10-09T09:03:19.012Z,118.00
2022-10-09T09:06:04.534Z,122.53
2022-10-09T09:08:39.275Z,188.18
2022-10-09T09:11:21.689Z,151.90
2022-10-09T09:13:58.494Z,122.03
2022-10-09T09:16:59.192Z,128.38
2022-10-09T09:19:40.439Z,142.52
2022-10-09T09:22:12.994Z,158.70
2022-10-09T09:24:43.595Z,137.23
2022-10-09T09:27:15.357Z,134.10
2022-10-09T09:29:46.255Z,169.60
2022-10-09T09:32:19.312Z,243.75
2022-10-09T09:34:48.071Z,172.00
2022-10-09T09:37:18.244Z,126.47
2022-10-09T09:42:35.659Z,130.55
2022-10-09T09:45:06.646Z,145.65
2022-10-09T09:47:37.670Z,128.07
2022-10-09T09:50:18.541Z,144.80
2022-10-09T09:52:57.886Z,128.10
2022-10-09T09:55:28.694Z,134.65
2022-10-09T09:58:03.318Z,159.75
2022-10-09T10:00:32.102Z,143.13
2022-10-09T10:03:05.508Z,249.15
2022-10-09T10:05:37.779Z,176.48
2022-10-09T10:08:24.067Z,164.23
2022-10-09T10:10:54.822Z,168.43
2022-10-09T10:13:24.965Z,168.45
2022-10-09T10:15:55.566Z,203.98
2022-10-09T10:18:25.279Z,176.88
2022-10-09T10:20:56.937Z,170.35
2022-10-09T10:23:37.083Z,265.85
2022-10-09T10:26:10.026Z,206.98
2022-10-09T10:28:46.443Z,251.90
2022-10-09T10:31:20.085Z,252.27
2022-10-09T10:33:51.905Z,385.17
2022-10-09T10:36:20.742Z,306.13
2022-10-09T10:38:55.947Z,271.75
2022-10-09T10:41:27.466Z,276.55
2022-10-09T10:43:59.600Z,551.03
2022-10-09T10:46:30.767Z,285.73
2022-10-09T10:49:00.148Z,306.05
2022-10-09T10:51:52.046Z,316.70
2022-10-09T10:54:31.885Z,327.67
2022-10-09T10:57:08.645Z,341.35
2022-10-09T10:59:42.598Z,531.10
2022-10-09T11:02:42.896Z,344.45
2022-10-09T11:05:24.016Z,331.67
2022-10-09T11:08:02.833Z,388.17
2022-10-09T11:10:37.571Z,360.55
2022-10-09T11:13:11.903Z,378.70
2022-10-09T11:15:47.299Z,304.30
2022-10-09T11:18:29.185Z,321.80
2022-10-09T11:21:08.593Z,521.50
2022-10-09T11:23:52.836Z,347.75
2022-10-09T11:26:29.170Z,331.50
2022-10-09T11:29:01.514Z,318.58
2022-10-09T11:31:33.582Z,317.38
2022-10-09T11:34:06.386Z,343.92
2022-10-09T11:36:38.045Z,439.50
2022-10-09T11:39:09.925Z,319.95
2022-10-09T11:41:40.223Z,348.35
2022-10-09T11:44:23.262Z,358.40
2022-10-09T11:46:59.222Z,324.63
2022-10-09T11:49:34.971Z,426.35
2022-10-09T11:52:08.376Z,371.13
2022-10-09T11:54:36.828Z,328.17
2022-10-09T11:57:08.739Z,389.30
2022-10-09T11:59:42.315Z,429.20
2022-10-09T12:02:25.748Z,374.33
2022-10-09T12:04:55.778Z,372.35
2022-10-09T12:07:30.028Z,460.52
2022-10-09T12:10:01.973Z,471.30
2022-10-09T12:12:32.041Z,372.52
2022-10-09T12:15:13.456Z,372.33
2022-10-09T12:17:49.912Z,432.45
2022-10-09T12:20:21.027Z,279.20
2022-10-09T12:23:14.402Z,308.65
2022-10-09T12:25:44.812Z,363.50
2022-10-09T12:28:21.862Z,391.50
2022-10-09T12:30:51.045Z,383.30
2022-10-09T12:33:22.697Z,375.95
2022-10-09T12:36:02.055Z,333.40
2022-10-09T12:38:32.581Z,373.40
2022-10-09T12:41:03.581Z,373.33
2022-10-09T12:43:34.555Z,378.67
2022-10-09T12:46:03.206Z,489.33
2022-10-09T12:48:41.939Z,333.50
2022-10-09T12:51:22.828Z,313.10
2022-10-09T12:54:09.925Z,367.25
2022-10-09T12:59:32.255Z,361.40
2022-10-09T13:02:25.727Z,415.27
2022-10-09T13:05:01.833Z,365.20
2022-10-09T13:07:32.487Z,387.10
2022-10-09T13:10:04.828Z,364.17
2022-10-09T13:12:33.638Z,381.85
2022-10-09T13:15:05.249Z,372.33
2022-10-09T13:17:35.885Z,287.20
2022-10-09T13:20:16.291Z,484.00
2022-10-09T13:22:54.994Z,402.67
2022-10-09T13:25:23.677Z,326.88
2022-10-09T13:27:52.421Z,368.13
2022-10-09T13:30:22.229Z,391.85
2022-10-09T13:32:50.694Z,340.15
2022-10-09T13:35:19.302Z,354.35
2022-10-09T13:37:48.236Z,335.08
2022-10-09T13:40:19.676Z,341.02
2022-10-09T13:42:53.137Z,340.08
2022-10-09T13:45:23.146Z,291.53
2022-10-09T13:47:52.071Z,392.52
2022-10-09T13:50:20.935Z,341.45
2022-10-09T13:52:49.277Z,425.77
2022-10-09T13:55:17.819Z,330.98
2022-10-09T13:57:47.360Z,364.70
2022-10-09T14:00:16.196Z,350.98
2022-10-09T14:02:52.489Z,324.30
2022-10-09T14:05:45.995Z,368.60
2022-10-09T14:08:14.519Z,373.40
2022-10-09T14:10:43.323Z,282.15
2022-10-09T14:13:25.357Z,348.70
2022-10-09T14:15:54.084Z,276.17
2022-10-09T14:18:24.087Z,306.38
2022-10-09T14:20:52.542Z,257.95
2022-10-09T14:23:20.991Z,316.50
2022-10-09T14:25:49.472Z,268.23
2022-10-09T14:28:17.940Z,242.38
2022-10-09T14:30:52.248Z,306.67
2022-10-09T14:33:20.823Z,284.23
2022-10-09T14:35:50.653Z,245.05
2022-10-09T14:38:19.116Z,289.15
2022-10-09T14:40:47.634Z,342.92
2022-10-09T14:43:16.235Z,262.95
2022-10-09T14:45:44.664Z,202.52
2022-10-09T14:48:13.077Z,261.65
2022-10-09T14:50:41.571Z,349.23
2022-10-09T14:53:11.355Z,209.15
2022-10-09T14:55:39.832Z,172.60
2022-10-09T14:58:08.285Z,174.35
2022-10-09T15:00:37.158Z,259.10
2022-10-09T15:03:07.989Z,167.77
2022-10-09T15:05:37.321Z,158.68
2022-10-09T15:08:05.980Z,129.25
2022-10-09T15:10:37.470Z,167.90
2022-10-09T15:13:06.200Z,197.07
2022-10-09T15:15:34.637Z,172.77
2022-10-09T15:18:03.064Z,116.07
2022-10-09T15:20:31.538Z,103.32
2022-10-09T15:22:59.945Z,181.95
2022-10-09T15:25:31.580Z,104.22
2022-10-09T15:28:04.611Z,119.07
2022-10-09T15:30:33.416Z,93.13
2022-10-09T15:33:03.403Z,159.90
2022-10-09T15:35:33.148Z,107.68
2022-10-09T15:38:01.823Z,165.40
2022-10-09T15:40:48.486Z,115.93
2022-10-09T15:43:23.566Z,141.77
2022-10-09T15:45:54.258Z,133.63
2022-10-09T15:48:24.726Z,244.18
2022-10-09T15:50:53.827Z,190.65
2022-10-09T15:53:23.999Z,155.10
2022-10-09T15:55:53.939Z,282.77
2022-10-09T15:58:23.786Z,258.75
2022-10-09T16:00:52.296Z,277.35
2022-10-09T16:11:04.063Z,232.55
2022-10-09T16:14:09.201Z,247.27
2022-10-09T16:28:43.508Z,202.85
2022-10-09T16:31:30.336Z,361.85
2022-10-09T16:34:05.523Z,244.85
2022-10-09T16:37:05.170Z,355.80
2022-10-09T16:40:17.956Z,296.73
2022-10-09T16:43:22.864Z,207.25
2022-10-09T16:46:36.339Z,197.73
2022-10-09T16:49:33.806Z,200.10
2022-10-09T16:52:04.657Z,210.13
2022-10-09T16:54:33.170Z,285.35
2022-10-09T16:57:04.769Z,227.32
2022-10-09T16:59:33.557Z,310.58
2022-10-09T17:02:04.029Z,323.98
2022-10-09T17:05:14.068Z,296.63
2022-10-09T17:15:55.496Z,362.23
2022-10-09T17:18:36.002Z,431.10
2022-10-09T17:40:31.951Z,314.23
2022-10-09T17:43:44.320Z,226.65
2022-10-09T17:55:00.041Z,313.02
2022-10-09T17:57:33.013Z,258.30
2022-10-09T18:00:06.133Z,314.13
2022-10-09T18:02:34.707Z,322.45
2022-10-09T18:05:06.451Z,311.58
2022-10-09T18:07:38.107Z,326.98
2022-10-09T18:12:54.892Z,294.08
2022-10-09T18:15:29.033Z,356.98
2022-10-09T18:18:00.588Z,316.75
2022-10-09T18:20:36.198Z,349.10
2022-10-09T18:23:05.053Z,466.75
2022-10-09T18:25:45.976Z,389.15
2022-10-09T18:28:21.014Z,395.23
2022-10-09T18:34:56.870Z,373.05
2022-10-09T18:45:17.591Z,393.67
2022-10-09T18:47:46.358Z,591.70
2022-10-09T18:50:16.961Z,644.58
2022-10-09T18:52:45.904Z,674.30
2022-10-09T18:55:15.965Z,662.78
2022-10-09T18:57:44.902Z,524.83
2022-10-09T19:00:17.868Z,454.60
2022-10-09T19:02:46.475Z,456.92
2022-10-09T19:05:16.613Z,413.65
2022-10-09T19:08:34.879Z,438.05
2022-10-09T19:11:16.402Z,332.05
2022-10-09T19:13:47.910Z,346.77
2022-10-09T19:16:19.094Z,349.88
2022-10-09T19:18:47.683Z,356.85
2022-10-09T19:21:20.287Z,369.23
2022-10-09T19:23:49.730Z,374.67
2022-10-09T19:26:18.362Z,387.25
2022-10-09T19:28:49.927Z,332.60
2022-10-09T19:31:18.795Z,348.58
2022-10-09T19:33:47.466Z,346.60
2022-10-09T19:36:19.333Z,336.55
2022-10-09T19:38:50.933Z,396.83
2022-10-09T19:41:19.396Z,435.30
2022-10-09T19:43:47.860Z,434.27
2022-10-09T19:46:18.058Z,336.30
2022-10-09T19:48:50.263Z,376.55
2022-10-09T19:51:22.723Z,435.75
2022-10-09T19:53:52.140Z,342.85
2022-10-09T19:56:22.143Z,406.00
2022-10-09T19:58:51.436Z,451.08
2022-10-09T20:01:22.500Z,363.60
2022-10-09T20:03:59.922Z,457.02
2022-10-09T20:06:29.997Z,411.17
2022-10-09T20:08:58.371Z,448.40
2022-10-09T20:11:29.137Z,405.00
2022-10-09T20:13:57.490Z,403.70
2022-10-09T20:16:27.914Z,405.98
2022-10-09T20:18:56.644Z,384.88
2022-10-09T20:21:25.164Z,466.92
2022-10-09T20:23:55.502Z,465.83
2022-10-09T20:26:24.602Z,455.13
2022-10-09T20:28:53.982Z,477.13
2022-10-09T20:31:24.627Z,465.48
2022-10-09T20:33:55.165Z,405.75
2022-10-09T20:36:28.255Z,395.73
2022-10-09T20:38:59.590Z,558.60
2022-10-09T20:41:28.750Z,458.25
2022-10-09T20:43:58.943Z,430.00
2022-10-09T20:46:31.181Z,416.73
2022-10-09T20:49:06.795Z,413.08
2022-10-09T20:51:37.015Z,483.23
2022-10-09T20:54:08.632Z,398.45
2022-10-09T20:56:37.617Z,401.75
2022-10-09T20:59:06.163Z,409.77
2022-10-09T21:01:36.852Z,412.92
2022-10-09T21:04:06.241Z,411.77
2022-10-09T21:06:36.108Z,471.42
2022-10-09T21:09:06.168Z,482.42
2022-10-09T21:11:35.533Z,409.08
2022-10-09T21:14:04.331Z,478.63
2022-10-09T21:16:32.854Z,482.95
2022-10-09T21:19:02.773Z,433.50
2022-10-09T21:21:31.920Z,438.75
2022-10-09T21:24:03.047Z,418.02
2022-10-09T21:26:35.833Z,490.15
2022-10-09T21:29:08.074Z,481.58
2022-10-09T21:31:36.416Z,415.85
2022-10-09T21:34:05.046Z,435.33
2022-10-09T21:36:41.109Z,495.88
2022-10-09T21:39:19.457Z,405.48
2022-10-09T21:41:49.715Z,404.67
2022-10-09T21:44:18.267Z,423.45
2022-10-09T21:46:46.750Z,465.08
2022-10-09T21:49:20.225Z,486.08
2022-10-09T21:51:48.719Z,470.75
2022-10-09T21:54:17.583Z,484.23
2022-10-09T21:56:46.168Z,423.73
2022-10-09T21:59:15.953Z,420.75
2022-10-09T22:01:44.390Z,410.48
2022-10-09T22:04:12.881Z,463.02
2022-10-09T22:06:43.377Z,474.02
2022-10-09T22:09:12.356Z,425.95
2022-10-09T22:14:31.724Z,447.90
2022-10-09T22:17:05.858Z,423.02
2022-10-09T22:19:34.455Z,392.45
2022-10-09T22:22:03.012Z,420.55
2022-10-09T22:24:31.500Z,405.95
2022-10-09T22:27:02.547Z,386.75
2022-10-09T22:29:33.996Z,383.10
2022-10-09T22:32:02.739Z,368.08
2022-10-09T22:34:33.365Z,397.42
2022-10-09T22:37:02.023Z,375.25
2022-10-09T22:39:30.693Z,420.42
2022-10-09T22:41:59.338Z,427.77
2022-10-09T22:44:28.336Z,435.77
2022-10-09T22:47:02.305Z,457.55
2022-10-09T22:49:32.728Z,542.13
2022-10-09T22:52:01.167Z,610.00
2022-10-09T22:54:31.991Z,685.78
2022-10-09T22:57:00.735Z,566.42
2022-10-09T22:59:29.571Z,565.20
2022-10-09T23:02:00.208Z,638.33
2022-10-09T23:04:34.325Z,736.38
2022-10-09T23:07:03.196Z,717.95
2022-10-09T23:09:33.112Z,637.75
2022-10-09T23:12:01.588Z,781.67
2022-10-09T23:14:29.999Z,637.83
2022-10-09T23:16:59.857Z,591.22
2022-10-09T23:19:28.283Z,742.08
2022-10-09T23:21:56.692Z,801.13
2022-10-09T23:24:25.298Z,632.50
2022-10-09T23:26:54.062Z,639.38
2022-10-09T23:29:22.666Z,712.80
2022-10-09T23:31:53.663Z,676.00
2022-10-09T23:34:23.619Z,681.58
2022-10-09T23:36:52.146Z,740.83
2022-10-09T23:39:20.705Z,844.47
2022-10-09T23:41:49.184Z,905.40
2022-10-09T23:44:22.008Z,731.60
2022-10-09T23:46:50.927Z,728.58
2022-10-09T23:49:19.400Z,868.10
2022-10-09T23:51:55.446Z,881.83
2022-10-09T23:54:23.934Z,841.88
2022-10-09T23:56:52.525Z,840.00
2022-10-09T23:59:21.027Z,874.35
